sensor_id;sensor_type;location;lat;lon;timestamp;temperature;humidity
52919;DHT22;38793;52.690;6.812;2023-05-27T00:00:56;9.50;99.90
52919;DHT22;38793;52.690;6.812;2023-05-27T00:03:21;9.50;99.90
52919;DHT22;38793;52.690;6.812;2023-05-27T00:05:47;9.50;99.90
52919;DHT22;38793;52.690;6.812;2023-05-27T00:08:13;9.40;99.90
52919;DHT22;38793;52.690;6.812;2023-05-27T00:10:38;9.40;99.90
52919;DHT22;38793;52.690;6.812;2023-05-27T00:13:04;9.40;99.90
52919;DHT22;38793;52.690;6.812;2023-05-27T00:15:29;9.40;99.90
52919;DHT22;38793;52.690;6.812;2023-05-27T00:17:58;9.40;99.90
52919;DHT22;38793;52.690;6.812;2023-05-27T00:20:25;9.40;99.90
52919;DHT22;38793;52.690;6.812;2023-05-27T00:22:51;9.40;99.90
52919;DHT22;38793;52.690;6.812;2023-05-27T00:25:17;9.30;99.90
52919;DHT22;38793;52.690;6.812;2023-05-27T00:27:46;9.30;99.90
52919;DHT22;38793;52.690;6.812;2023-05-27T00:30:11;9.20;99.90
52919;DHT22;38793;52.690;6.812;2023-05-27T00:32:37;9.20;99.90
52919;DHT22;38793;52.690;6.812;2023-05-27T00:35:03;9.20;99.90
52919;DHT22;38793;52.690;6.812;2023-05-27T00:37:29;9.20;99.90
52919;DHT22;38793;52.690;6.812;2023-05-27T00:39:54;9.20;99.90
52919;DHT22;38793;52.690;6.812;2023-05-27T00:42:20;9.20;99.90
52919;DHT22;38793;52.690;6.812;2023-05-27T00:44:45;9.10;99.90
52919;DHT22;38793;52.690;6.812;2023-05-27T00:47:11;9.10;99.90
52919;DHT22;38793;52.690;6.812;2023-05-27T00:49:37;9.10;99.90
52919;DHT22;38793;52.690;6.812;2023-05-27T00:52:04;9.00;99.90
52919;DHT22;38793;52.690;6.812;2023-05-27T00:54:30;9.00;99.90
52919;DHT22;38793;52.690;6.812;2023-05-27T00:56:57;8.90;99.90
52919;DHT22;38793;52.690;6.812;2023-05-27T00:59:23;8.90;99.90
52919;DHT22;38793;52.690;6.812;2023-05-27T01:01:48;8.90;99.90
52919;DHT22;38793;52.690;6.812;2023-05-27T01:04:16;8.80;99.90
52919;DHT22;38793;52.690;6.812;2023-05-27T01:06:58;8.80;99.90
52919;DHT22;38793;52.690;6.812;2023-05-27T01:09:56;8.80;99.90
52919;DHT22;38793;52.690;6.812;2023-05-27T01:12:59;8.70;99.90
52919;DHT22;38793;52.690;6.812;2023-05-27T01:15:26;8.70;99.90
52919;DHT22;38793;52.690;6.812;2023-05-27T01:17:55;8.60;99.90
52919;DHT22;38793;52.690;6.812;2023-05-27T01:20:22;8.60;99.90
52919;DHT22;38793;52.690;6.812;2023-05-27T01:22:48;8.70;99.90
52919;DHT22;38793;52.690;6.812;2023-05-27T01:25:18;8.70;99.90
52919;DHT22;38793;52.690;6.812;2023-05-27T01:27:45;8.70;99.90
52919;DHT22;38793;52.690;6.812;2023-05-27T01:30:11;8.70;99.90
52919;DHT22;38793;52.690;6.812;2023-05-27T01:35:31;8.60;99.90
52919;DHT22;38793;52.690;6.812;2023-05-27T01:38:04;8.60;99.90
52919;DHT22;38793;52.690;6.812;2023-05-27T01:40:31;8.60;99.90
52919;DHT22;38793;52.690;6.812;2023-05-27T01:42:57;8.50;99.90
52919;DHT22;38793;52.690;6.812;2023-05-27T01:45:25;8.50;99.90
52919;DHT22;38793;52.690;6.812;2023-05-27T01:47:51;8.50;99.90
52919;DHT22;38793;52.690;6.812;2023-05-27T01:50:17;8.50;99.90
52919;DHT22;38793;52.690;6.812;2023-05-27T01:52:43;8.50;99.90
52919;DHT22;38793;52.690;6.812;2023-05-27T01:55:09;8.50;99.90
52919;DHT22;38793;52.690;6.812;2023-05-27T01:57:35;8.50;99.90
52919;DHT22;38793;52.690;6.812;2023-05-27T02:00:01;8.50;99.90
52919;DHT22;38793;52.690;6.812;2023-05-27T02:02:26;8.50;99.90
52919;DHT22;38793;52.690;6.812;2023-05-27T02:04:52;8.50;99.90
52919;DHT22;38793;52.690;6.812;2023-05-27T02:07:17;8.50;99.90
52919;DHT22;38793;52.690;6.812;2023-05-27T02:09:44;8.50;99.90
52919;DHT22;38793;52.690;6.812;2023-05-27T02:12:10;8.50;99.90
52919;DHT22;38793;52.690;6.812;2023-05-27T02:14:38;8.60;99.90
52919;DHT22;38793;52.690;6.812;2023-05-27T02:17:04;8.60;99.90
52919;DHT22;38793;52.690;6.812;2023-05-27T02:19:30;8.70;99.90
52919;DHT22;38793;52.690;6.812;2023-05-27T02:21:56;8.70;99.90
52919;DHT22;38793;52.690;6.812;2023-05-27T02:24:21;8.70;99.90
52919;DHT22;38793;52.690;6.812;2023-05-27T02:26:47;8.80;99.90
52919;DHT22;38793;52.690;6.812;2023-05-27T02:29:12;8.80;99.90
52919;DHT22;38793;52.690;6.812;2023-05-27T02:31:38;8.90;99.90
52919;DHT22;38793;52.690;6.812;2023-05-27T02:34:03;8.90;99.90
52919;DHT22;38793;52.690;6.812;2023-05-27T02:36:29;8.90;99.90
52919;DHT22;38793;52.690;6.812;2023-05-27T02:38:54;8.90;99.90
52919;DHT22;38793;52.690;6.812;2023-05-27T02:41:20;9.00;99.90
52919;DHT22;38793;52.690;6.812;2023-05-27T02:43:46;8.90;99.90
52919;DHT22;38793;52.690;6.812;2023-05-27T02:46:11;9.00;99.90
52919;DHT22;38793;52.690;6.812;2023-05-27T02:48:37;9.00;99.90
52919;DHT22;38793;52.690;6.812;2023-05-27T02:51:03;9.00;99.90
52919;DHT22;38793;52.690;6.812;2023-05-27T02:53:28;9.10;99.90
52919;DHT22;38793;52.690;6.812;2023-05-27T02:55:54;9.10;99.90
52919;DHT22;38793;52.690;6.812;2023-05-27T02:58:19;9.10;99.90
52919;DHT22;38793;52.690;6.812;2023-05-27T03:00:45;9.10;99.90
52919;DHT22;38793;52.690;6.812;2023-05-27T03:03:11;9.10;99.90
52919;DHT22;38793;52.690;6.812;2023-05-27T03:05:36;9.10;99.90
52919;DHT22;38793;52.690;6.812;2023-05-27T03:08:02;9.10;99.90
52919;DHT22;38793;52.690;6.812;2023-05-27T03:10:31;9.10;99.90
52919;DHT22;38793;52.690;6.812;2023-05-27T03:12:57;9.10;99.90
52919;DHT22;38793;52.690;6.812;2023-05-27T03:15:23;9.10;99.90
52919;DHT22;38793;52.690;6.812;2023-05-27T03:17:48;9.10;99.90
52919;DHT22;38793;52.690;6.812;2023-05-27T03:20:14;9.10;99.90
52919;DHT22;38793;52.690;6.812;2023-05-27T03:22:42;9.20;99.90
52919;DHT22;38793;52.690;6.812;2023-05-27T03:25:08;9.10;99.90
52919;DHT22;38793;52.690;6.812;2023-05-27T03:27:33;9.20;99.90
52919;DHT22;38793;52.690;6.812;2023-05-27T03:30:00;9.20;99.90
52919;DHT22;38793;52.690;6.812;2023-05-27T03:32:25;9.20;99.90
52919;DHT22;38793;52.690;6.812;2023-05-27T03:34:51;9.20;99.90
52919;DHT22;38793;52.690;6.812;2023-05-27T03:37:16;9.20;99.90
52919;DHT22;38793;52.690;6.812;2023-05-27T03:39:42;9.20;99.90
52919;DHT22;38793;52.690;6.812;2023-05-27T03:42:08;9.20;99.90
52919;DHT22;38793;52.690;6.812;2023-05-27T03:44:34;9.20;99.90
52919;DHT22;38793;52.690;6.812;2023-05-27T03:47:02;9.20;99.90
52919;DHT22;38793;52.690;6.812;2023-05-27T03:49:27;9.20;99.90
52919;DHT22;38793;52.690;6.812;2023-05-27T03:51:53;9.20;99.90
52919;DHT22;38793;52.690;6.812;2023-05-27T03:54:18;9.20;99.90
52919;DHT22;38793;52.690;6.812;2023-05-27T03:56:45;9.30;99.90
52919;DHT22;38793;52.690;6.812;2023-05-27T03:59:10;9.20;99.90
52919;DHT22;38793;52.690;6.812;2023-05-27T04:01:37;9.20;99.90
52919;DHT22;38793;52.690;6.812;2023-05-27T04:04:03;9.20;99.90
52919;DHT22;38793;52.690;6.812;2023-05-27T04:06:28;9.20;99.90
52919;DHT22;38793;52.690;6.812;2023-05-27T04:08:54;9.20;99.90
52919;DHT22;38793;52.690;6.812;2023-05-27T04:11:20;9.20;99.90
52919;DHT22;38793;52.690;6.812;2023-05-27T04:13:46;9.20;99.90
52919;DHT22;38793;52.690;6.812;2023-05-27T04:16:14;9.10;99.90
52919;DHT22;38793;52.690;6.812;2023-05-27T04:18:40;9.10;99.90
52919;DHT22;38793;52.690;6.812;2023-05-27T04:21:06;9.10;99.90
52919;DHT22;38793;52.690;6.812;2023-05-27T04:23:33;9.10;99.90
52919;DHT22;38793;52.690;6.812;2023-05-27T04:25:59;9.10;99.90
52919;DHT22;38793;52.690;6.812;2023-05-27T04:28:25;9.20;99.90
52919;DHT22;38793;52.690;6.812;2023-05-27T04:30:51;9.20;99.90
52919;DHT22;38793;52.690;6.812;2023-05-27T04:33:16;9.20;99.90
52919;DHT22;38793;52.690;6.812;2023-05-27T04:35:42;9.20;99.90
52919;DHT22;38793;52.690;6.812;2023-05-27T04:38:10;9.20;99.90
52919;DHT22;38793;52.690;6.812;2023-05-27T04:40:36;9.20;99.90
52919;DHT22;38793;52.690;6.812;2023-05-27T04:43:01;9.30;99.90
52919;DHT22;38793;52.690;6.812;2023-05-27T04:45:27;9.30;99.90
52919;DHT22;38793;52.690;6.812;2023-05-27T04:47:54;9.30;99.90
52919;DHT22;38793;52.690;6.812;2023-05-27T04:50:21;9.40;99.90
52919;DHT22;38793;52.690;6.812;2023-05-27T04:52:46;9.40;99.90
52919;DHT22;38793;52.690;6.812;2023-05-27T04:55:12;9.50;99.90
52919;DHT22;38793;52.690;6.812;2023-05-27T04:57:38;9.50;99.90
52919;DHT22;38793;52.690;6.812;2023-05-27T05:00:07;9.60;99.90
52919;DHT22;38793;52.690;6.812;2023-05-27T05:02:35;9.60;99.90
52919;DHT22;38793;52.690;6.812;2023-05-27T05:05:09;9.70;99.90
52919;DHT22;38793;52.690;6.812;2023-05-27T05:07:35;9.70;99.90
52919;DHT22;38793;52.690;6.812;2023-05-27T05:10:07;9.80;99.90
52919;DHT22;38793;52.690;6.812;2023-05-27T05:12:33;9.90;99.90
52919;DHT22;38793;52.690;6.812;2023-05-27T05:14:59;10.00;99.90
52919;DHT22;38793;52.690;6.812;2023-05-27T05:17:25;10.00;99.90
52919;DHT22;38793;52.690;6.812;2023-05-27T05:19:54;10.10;99.90
52919;DHT22;38793;52.690;6.812;2023-05-27T05:22:19;10.20;99.90
52919;DHT22;38793;52.690;6.812;2023-05-27T05:24:48;10.30;99.90
52919;DHT22;38793;52.690;6.812;2023-05-27T05:27:14;10.30;99.90
52919;DHT22;38793;52.690;6.812;2023-05-27T05:29:39;10.40;99.90
52919;DHT22;38793;52.690;6.812;2023-05-27T05:32:06;10.50;99.90
52919;DHT22;38793;52.690;6.812;2023-05-27T05:34:32;10.60;99.90
52919;DHT22;38793;52.690;6.812;2023-05-27T05:36:57;10.60;99.90
52919;DHT22;38793;52.690;6.812;2023-05-27T05:39:23;10.70;99.90
52919;DHT22;38793;52.690;6.812;2023-05-27T05:41:49;10.80;99.90
52919;DHT22;38793;52.690;6.812;2023-05-27T05:44:16;10.90;99.90
52919;DHT22;38793;52.690;6.812;2023-05-27T05:46:41;11.00;99.90
52919;DHT22;38793;52.690;6.812;2023-05-27T05:49:07;11.10;99.90
52919;DHT22;38793;52.690;6.812;2023-05-27T05:51:33;11.20;99.90
52919;DHT22;38793;52.690;6.812;2023-05-27T05:53:58;11.30;99.90
52919;DHT22;38793;52.690;6.812;2023-05-27T05:56:24;11.40;99.90
52919;DHT22;38793;52.690;6.812;2023-05-27T05:58:51;11.50;99.90
52919;DHT22;38793;52.690;6.812;2023-05-27T06:01:17;11.60;99.90
52919;DHT22;38793;52.690;6.812;2023-05-27T06:03:43;11.70;99.90
52919;DHT22;38793;52.690;6.812;2023-05-27T06:06:09;11.80;99.90
52919;DHT22;38793;52.690;6.812;2023-05-27T06:08:35;11.80;99.90
52919;DHT22;38793;52.690;6.812;2023-05-27T06:11:00;11.90;99.90
52919;DHT22;38793;52.690;6.812;2023-05-27T06:13:26;12.00;99.90
52919;DHT22;38793;52.690;6.812;2023-05-27T06:15:51;12.00;99.90
52919;DHT22;38793;52.690;6.812;2023-05-27T06:18:17;12.10;99.90
52919;DHT22;38793;52.690;6.812;2023-05-27T06:20:43;12.10;99.90
52919;DHT22;38793;52.690;6.812;2023-05-27T06:23:09;12.20;99.90
52919;DHT22;38793;52.690;6.812;2023-05-27T06:25:34;12.30;99.90
52919;DHT22;38793;52.690;6.812;2023-05-27T06:28:00;12.30;99.90
52919;DHT22;38793;52.690;6.812;2023-05-27T06:30:26;12.40;99.90
52919;DHT22;38793;52.690;6.812;2023-05-27T06:32:52;12.60;99.90
52919;DHT22;38793;52.690;6.812;2023-05-27T06:35:18;12.70;99.90
52919;DHT22;38793;52.690;6.812;2023-05-27T06:37:44;12.80;99.90
52919;DHT22;38793;52.690;6.812;2023-05-27T06:40:10;12.90;99.90
52919;DHT22;38793;52.690;6.812;2023-05-27T06:42:36;12.90;99.90
52919;DHT22;38793;52.690;6.812;2023-05-27T06:45:02;13.00;99.90
52919;DHT22;38793;52.690;6.812;2023-05-27T06:47:28;13.00;99.90
52919;DHT22;38793;52.690;6.812;2023-05-27T06:49:54;13.00;99.90
52919;DHT22;38793;52.690;6.812;2023-05-27T06:52:19;13.00;99.90
52919;DHT22;38793;52.690;6.812;2023-05-27T06:54:46;13.00;99.90
52919;DHT22;38793;52.690;6.812;2023-05-27T06:57:12;13.00;99.90
52919;DHT22;38793;52.690;6.812;2023-05-27T06:59:38;13.00;99.90
52919;DHT22;38793;52.690;6.812;2023-05-27T07:02:04;13.00;99.90
52919;DHT22;38793;52.690;6.812;2023-05-27T07:04:29;13.10;99.90
52919;DHT22;38793;52.690;6.812;2023-05-27T07:06:55;13.20;99.90
52919;DHT22;38793;52.690;6.812;2023-05-27T07:09:21;13.20;99.90
52919;DHT22;38793;52.690;6.812;2023-05-27T07:11:46;13.30;99.90
52919;DHT22;38793;52.690;6.812;2023-05-27T07:14:12;13.40;99.90
52919;DHT22;38793;52.690;6.812;2023-05-27T07:16:38;13.50;99.90
52919;DHT22;38793;52.690;6.812;2023-05-27T07:19:03;13.60;99.90
52919;DHT22;38793;52.690;6.812;2023-05-27T07:21:29;13.60;99.90
52919;DHT22;38793;52.690;6.812;2023-05-27T07:23:55;13.70;99.90
52919;DHT22;38793;52.690;6.812;2023-05-27T07:26:24;13.80;99.90
52919;DHT22;38793;52.690;6.812;2023-05-27T07:28:51;13.90;99.90
52919;DHT22;38793;52.690;6.812;2023-05-27T07:31:17;13.90;99.90
52919;DHT22;38793;52.690;6.812;2023-05-27T07:33:42;13.90;99.90
52919;DHT22;38793;52.690;6.812;2023-05-27T07:36:08;13.80;99.90
52919;DHT22;38793;52.690;6.812;2023-05-27T07:38:34;13.80;99.90
52919;DHT22;38793;52.690;6.812;2023-05-27T07:40:59;13.80;99.90
52919;DHT22;38793;52.690;6.812;2023-05-27T07:43:25;13.80;99.90
52919;DHT22;38793;52.690;6.812;2023-05-27T07:45:51;13.70;99.90
52919;DHT22;38793;52.690;6.812;2023-05-27T07:48:16;13.90;99.90
52919;DHT22;38793;52.690;6.812;2023-05-27T07:50:42;14.00;99.90
52919;DHT22;38793;52.690;6.812;2023-05-27T07:53:08;14.20;99.90
52919;DHT22;38793;52.690;6.812;2023-05-27T07:55:34;14.40;99.90
52919;DHT22;38793;52.690;6.812;2023-05-27T07:57:59;14.60;99.90
52919;DHT22;38793;52.690;6.812;2023-05-27T08:00:25;14.70;99.90
52919;DHT22;38793;52.690;6.812;2023-05-27T08:02:50;14.80;99.90
52919;DHT22;38793;52.690;6.812;2023-05-27T08:05:16;14.90;99.90
52919;DHT22;38793;52.690;6.812;2023-05-27T08:07:42;15.00;99.90
52919;DHT22;38793;52.690;6.812;2023-05-27T08:10:08;15.10;99.90
52919;DHT22;38793;52.690;6.812;2023-05-27T08:12:34;15.30;99.90
52919;DHT22;38793;52.690;6.812;2023-05-27T08:14:59;15.40;99.90
52919;DHT22;38793;52.690;6.812;2023-05-27T08:17:25;15.50;99.90
52919;DHT22;38793;52.690;6.812;2023-05-27T08:19:50;15.60;99.90
52919;DHT22;38793;52.690;6.812;2023-05-27T08:22:16;15.70;99.90
52919;DHT22;38793;52.690;6.812;2023-05-27T08:24:42;15.70;99.90
52919;DHT22;38793;52.690;6.812;2023-05-27T08:27:14;15.80;99.90
52919;DHT22;38793;52.690;6.812;2023-05-27T08:29:40;15.90;99.90
52919;DHT22;38793;52.690;6.812;2023-05-27T08:32:06;16.00;99.90
52919;DHT22;38793;52.690;6.812;2023-05-27T08:34:31;16.10;99.90
52919;DHT22;38793;52.690;6.812;2023-05-27T08:36:57;16.20;99.90
52919;DHT22;38793;52.690;6.812;2023-05-27T08:39:22;16.20;99.90
52919;DHT22;38793;52.690;6.812;2023-05-27T08:41:49;16.30;99.90
52919;DHT22;38793;52.690;6.812;2023-05-27T08:44:15;16.30;99.90
52919;DHT22;38793;52.690;6.812;2023-05-27T08:46:41;16.40;99.90
52919;DHT22;38793;52.690;6.812;2023-05-27T08:49:07;16.50;99.90
52919;DHT22;38793;52.690;6.812;2023-05-27T08:51:39;16.60;99.90
52919;DHT22;38793;52.690;6.812;2023-05-27T08:54:05;16.70;99.90
52919;DHT22;38793;52.690;6.812;2023-05-27T08:56:31;16.70;99.90
52919;DHT22;38793;52.690;6.812;2023-05-27T08:58:58;16.80;99.90
52919;DHT22;38793;52.690;6.812;2023-05-27T09:01:25;16.90;99.90
52919;DHT22;38793;52.690;6.812;2023-05-27T09:03:54;17.00;99.90
52919;DHT22;38793;52.690;6.812;2023-05-27T09:06:20;17.10;99.90
52919;DHT22;38793;52.690;6.812;2023-05-27T09:08:46;17.10;99.90
52919;DHT22;38793;52.690;6.812;2023-05-27T09:11:24;17.20;99.90
52919;DHT22;38793;52.690;6.812;2023-05-27T09:13:53;17.30;99.70
52919;DHT22;38793;52.690;6.812;2023-05-27T09:16:21;17.40;99.40
52919;DHT22;38793;52.690;6.812;2023-05-27T09:18:47;17.50;99.30
52919;DHT22;38793;52.690;6.812;2023-05-27T09:21:12;17.50;98.40
52919;DHT22;38793;52.690;6.812;2023-05-27T09:23:38;17.60;98.40
52919;DHT22;38793;52.690;6.812;2023-05-27T09:26:11;17.60;98.20
52919;DHT22;38793;52.690;6.812;2023-05-27T09:28:37;17.60;98.10
52919;DHT22;38793;52.690;6.812;2023-05-27T09:31:03;17.60;98.30
52919;DHT22;38793;52.690;6.812;2023-05-27T09:33:39;17.70;98.10
52919;DHT22;38793;52.690;6.812;2023-05-27T09:36:06;17.70;98.20
52919;DHT22;38793;52.690;6.812;2023-05-27T09:38:34;17.80;98.30
52919;DHT22;38793;52.690;6.812;2023-05-27T09:41:01;17.90;98.00
52919;DHT22;38793;52.690;6.812;2023-05-27T09:43:29;17.90;97.80
52919;DHT22;38793;52.690;6.812;2023-05-27T09:45:59;17.90;97.60
52919;DHT22;38793;52.690;6.812;2023-05-27T09:48:26;18.00;97.40
52919;DHT22;38793;52.690;6.812;2023-05-27T09:50:52;18.10;97.40
52919;DHT22;38793;52.690;6.812;2023-05-27T09:53:20;18.30;97.90
52919;DHT22;38793;52.690;6.812;2023-05-27T09:55:48;18.40;97.80
52919;DHT22;38793;52.690;6.812;2023-05-27T09:58:14;18.60;97.80
52919;DHT22;38793;52.690;6.812;2023-05-27T10:00:43;18.70;97.30
52919;DHT22;38793;52.690;6.812;2023-05-27T10:03:10;18.80;96.70
52919;DHT22;38793;52.690;6.812;2023-05-27T10:05:36;18.90;96.50
52919;DHT22;38793;52.690;6.812;2023-05-27T10:08:02;18.90;95.90
52919;DHT22;38793;52.690;6.812;2023-05-27T10:10:28;18.90;95.30
52919;DHT22;38793;52.690;6.812;2023-05-27T10:12:55;18.90;95.50
52919;DHT22;38793;52.690;6.812;2023-05-27T10:15:31;18.90;95.40
52919;DHT22;38793;52.690;6.812;2023-05-27T10:18:02;18.90;95.40
52919;DHT22;38793;52.690;6.812;2023-05-27T10:20:36;19.00;95.50
52919;DHT22;38793;52.690;6.812;2023-05-27T10:23:19;19.10;95.70
52919;DHT22;38793;52.690;6.812;2023-05-27T10:25:49;19.20;95.30
52919;DHT22;38793;52.690;6.812;2023-05-27T10:31:23;19.30;94.70
52919;DHT22;38793;52.690;6.812;2023-05-27T10:33:54;19.30;94.50
52919;DHT22;38793;52.690;6.812;2023-05-27T10:36:26;19.40;95.00
52919;DHT22;38793;52.690;6.812;2023-05-27T10:38:56;19.40;94.90
52919;DHT22;38793;52.690;6.812;2023-05-27T10:41:22;19.50;94.70
52919;DHT22;38793;52.690;6.812;2023-05-27T10:43:56;19.70;94.70
52919;DHT22;38793;52.690;6.812;2023-05-27T10:46:26;19.80;94.40
52919;DHT22;38793;52.690;6.812;2023-05-27T10:48:52;20.00;94.10
52919;DHT22;38793;52.690;6.812;2023-05-27T10:51:17;20.00;93.10
52919;DHT22;38793;52.690;6.812;2023-05-27T10:53:43;20.00;93.00
52919;DHT22;38793;52.690;6.812;2023-05-27T10:56:09;20.00;92.30
52919;DHT22;38793;52.690;6.812;2023-05-27T10:58:35;20.10;92.90
52919;DHT22;38793;52.690;6.812;2023-05-27T11:01:07;20.20;92.80
52919;DHT22;38793;52.690;6.812;2023-05-27T11:03:34;20.30;92.30
52919;DHT22;38793;52.690;6.812;2023-05-27T11:06:03;20.30;91.90
52919;DHT22;38793;52.690;6.812;2023-05-27T11:08:29;20.30;92.00
52919;DHT22;38793;52.690;6.812;2023-05-27T11:11:03;20.30;92.50
52919;DHT22;38793;52.690;6.812;2023-05-27T11:13:42;20.40;92.10
52919;DHT22;38793;52.690;6.812;2023-05-27T11:16:09;20.60;92.20
52919;DHT22;38793;52.690;6.812;2023-05-27T11:21:09;20.80;91.80
52919;DHT22;38793;52.690;6.812;2023-05-27T11:23:47;20.80;91.70
52919;DHT22;38793;52.690;6.812;2023-05-27T11:26:21;20.70;91.60
52919;DHT22;38793;52.690;6.812;2023-05-27T11:28:51;20.70;91.20
52919;DHT22;38793;52.690;6.812;2023-05-27T11:31:22;20.80;91.60
52919;DHT22;38793;52.690;6.812;2023-05-27T11:33:51;20.90;91.50
52919;DHT22;38793;52.690;6.812;2023-05-27T11:36:17;20.90;91.10
52919;DHT22;38793;52.690;6.812;2023-05-27T11:38:56;21.00;89.70
52919;DHT22;38793;52.690;6.812;2023-05-27T11:41:26;21.00;90.70
52919;DHT22;38793;52.690;6.812;2023-05-27T11:44:03;21.10;89.70
52919;DHT22;38793;52.690;6.812;2023-05-27T11:46:40;21.10;90.00
52919;DHT22;38793;52.690;6.812;2023-05-27T11:49:08;21.10;89.50
52919;DHT22;38793;52.690;6.812;2023-05-27T11:51:42;21.10;87.70
52919;DHT22;38793;52.690;6.812;2023-05-27T11:54:18;21.20;88.70
52919;DHT22;38793;52.690;6.812;2023-05-27T11:56:45;21.20;87.40
52919;DHT22;38793;52.690;6.812;2023-05-27T11:59:10;21.20;88.00
52919;DHT22;38793;52.690;6.812;2023-05-27T12:01:36;21.30;86.80
52919;DHT22;38793;52.690;6.812;2023-05-27T12:04:02;21.40;88.50
52919;DHT22;38793;52.690;6.812;2023-05-27T12:06:27;21.40;88.50
52919;DHT22;38793;52.690;6.812;2023-05-27T12:08:53;21.60;88.00
52919;DHT22;38793;52.690;6.812;2023-05-27T12:11:18;21.70;88.00
52919;DHT22;38793;52.690;6.812;2023-05-27T12:13:44;21.70;88.60
52919;DHT22;38793;52.690;6.812;2023-05-27T12:16:10;21.80;87.50
52919;DHT22;38793;52.690;6.812;2023-05-27T12:18:36;21.70;86.90
52919;DHT22;38793;52.690;6.812;2023-05-27T12:21:02;21.70;86.70
52919;DHT22;38793;52.690;6.812;2023-05-27T12:23:28;21.80;85.30
52919;DHT22;38793;52.690;6.812;2023-05-27T12:25:53;21.80;86.00
52919;DHT22;38793;52.690;6.812;2023-05-27T12:28:19;21.80;85.50
52919;DHT22;38793;52.690;6.812;2023-05-27T12:30:44;21.80;85.70
52919;DHT22;38793;52.690;6.812;2023-05-27T12:33:11;21.80;85.40
52919;DHT22;38793;52.690;6.812;2023-05-27T12:35:37;21.80;85.70
52919;DHT22;38793;52.690;6.812;2023-05-27T12:38:03;21.80;86.00
52919;DHT22;38793;52.690;6.812;2023-05-27T12:40:28;21.70;85.80
52919;DHT22;38793;52.690;6.812;2023-05-27T12:42:54;21.60;83.50
52919;DHT22;38793;52.690;6.812;2023-05-27T12:45:20;21.70;85.60
52919;DHT22;38793;52.690;6.812;2023-05-27T12:47:48;21.80;85.20
52919;DHT22;38793;52.690;6.812;2023-05-27T12:50:14;22.00;84.50
52919;DHT22;38793;52.690;6.812;2023-05-27T12:52:40;22.10;82.80
52919;DHT22;38793;52.690;6.812;2023-05-27T12:55:12;22.20;85.30
52919;DHT22;38793;52.690;6.812;2023-05-27T12:57:37;22.20;84.10
52919;DHT22;38793;52.690;6.812;2023-05-27T13:00:03;22.30;83.70
52919;DHT22;38793;52.690;6.812;2023-05-27T13:02:29;22.20;82.80
52919;DHT22;38793;52.690;6.812;2023-05-27T13:04:54;22.20;83.70
52919;DHT22;38793;52.690;6.812;2023-05-27T13:07:20;22.10;82.30
52919;DHT22;38793;52.690;6.812;2023-05-27T13:09:45;22.10;82.20
52919;DHT22;38793;52.690;6.812;2023-05-27T13:12:11;22.10;82.70
52919;DHT22;38793;52.690;6.812;2023-05-27T13:14:37;22.20;83.40
52919;DHT22;38793;52.690;6.812;2023-05-27T13:17:02;22.30;80.50
52919;DHT22;38793;52.690;6.812;2023-05-27T13:19:28;22.40;81.20
52919;DHT22;38793;52.690;6.812;2023-05-27T13:21:54;22.40;80.00
52919;DHT22;38793;52.690;6.812;2023-05-27T13:24:19;22.50;80.70
52919;DHT22;38793;52.690;6.812;2023-05-27T13:26:45;22.60;81.00
52919;DHT22;38793;52.690;6.812;2023-05-27T13:29:11;22.70;81.40
52919;DHT22;38793;52.690;6.812;2023-05-27T13:31:36;22.70;79.90
52919;DHT22;38793;52.690;6.812;2023-05-27T13:34:02;22.70;80.50
52919;DHT22;38793;52.690;6.812;2023-05-27T13:36:27;22.80;80.60
52919;DHT22;38793;52.690;6.812;2023-05-27T13:38:53;22.90;80.60
52919;DHT22;38793;52.690;6.812;2023-05-27T13:41:18;22.90;80.30
52919;DHT22;38793;52.690;6.812;2023-05-27T13:43:44;22.90;79.70
52919;DHT22;38793;52.690;6.812;2023-05-27T13:46:10;22.80;80.60
52919;DHT22;38793;52.690;6.812;2023-05-27T13:48:35;22.80;79.10
52919;DHT22;38793;52.690;6.812;2023-05-27T13:51:01;22.70;82.40
52919;DHT22;38793;52.690;6.812;2023-05-27T13:53:27;22.70;78.80
52919;DHT22;38793;52.690;6.812;2023-05-27T13:55:52;22.70;79.00
52919;DHT22;38793;52.690;6.812;2023-05-27T13:58:18;22.80;79.50
52919;DHT22;38793;52.690;6.812;2023-05-27T14:00:43;22.90;78.40
52919;DHT22;38793;52.690;6.812;2023-05-27T14:03:09;23.00;78.10
52919;DHT22;38793;52.690;6.812;2023-05-27T14:05:34;23.10;78.20
52919;DHT22;38793;52.690;6.812;2023-05-27T14:08:04;23.10;77.80
52919;DHT22;38793;52.690;6.812;2023-05-27T14:10:31;23.20;77.80
52919;DHT22;38793;52.690;6.812;2023-05-27T14:12:58;23.30;78.20
52919;DHT22;38793;52.690;6.812;2023-05-27T14:15:23;23.20;77.40
52919;DHT22;38793;52.690;6.812;2023-05-27T14:17:53;23.30;77.60
52919;DHT22;38793;52.690;6.812;2023-05-27T14:20:18;23.30;75.70
52919;DHT22;38793;52.690;6.812;2023-05-27T14:22:44;23.30;76.30
52919;DHT22;38793;52.690;6.812;2023-05-27T14:25:10;23.30;77.10
52919;DHT22;38793;52.690;6.812;2023-05-27T14:27:35;23.20;75.90
52919;DHT22;38793;52.690;6.812;2023-05-27T14:30:01;23.10;75.40
52919;DHT22;38793;52.690;6.812;2023-05-27T14:32:27;23.10;76.90
52919;DHT22;38793;52.690;6.812;2023-05-27T14:34:53;23.00;76.00
52919;DHT22;38793;52.690;6.812;2023-05-27T14:37:20;23.00;75.70
52919;DHT22;38793;52.690;6.812;2023-05-27T14:39:46;22.80;74.10
52919;DHT22;38793;52.690;6.812;2023-05-27T14:42:11;22.80;74.60
52919;DHT22;38793;52.690;6.812;2023-05-27T14:44:37;22.80;75.40
52919;DHT22;38793;52.690;6.812;2023-05-27T14:47:02;22.80;74.20
52919;DHT22;38793;52.690;6.812;2023-05-27T14:49:28;22.80;75.60
52919;DHT22;38793;52.690;6.812;2023-05-27T14:51:54;22.80;74.30
52919;DHT22;38793;52.690;6.812;2023-05-27T14:54:19;22.80;74.80
52919;DHT22;38793;52.690;6.812;2023-05-27T14:56:46;22.70;76.20
52919;DHT22;38793;52.690;6.812;2023-05-27T14:59:11;22.70;76.00
52919;DHT22;38793;52.690;6.812;2023-05-27T15:01:37;22.80;76.60
52919;DHT22;38793;52.690;6.812;2023-05-27T15:04:03;22.70;74.50
52919;DHT22;38793;52.690;6.812;2023-05-27T15:06:29;22.60;74.30
52919;DHT22;38793;52.690;6.812;2023-05-27T15:08:54;22.50;74.40
52919;DHT22;38793;52.690;6.812;2023-05-27T15:11:20;22.50;76.10
52919;DHT22;38793;52.690;6.812;2023-05-27T15:13:46;22.50;74.80
52919;DHT22;38793;52.690;6.812;2023-05-27T15:16:11;22.50;75.40
52919;DHT22;38793;52.690;6.812;2023-05-27T15:18:36;22.40;75.30
52919;DHT22;38793;52.690;6.812;2023-05-27T15:21:02;22.50;75.30
52919;DHT22;38793;52.690;6.812;2023-05-27T15:23:27;22.40;75.70
52919;DHT22;38793;52.690;6.812;2023-05-27T15:25:53;22.30;76.70
52919;DHT22;38793;52.690;6.812;2023-05-27T15:28:19;22.20;76.70
52919;DHT22;38793;52.690;6.812;2023-05-27T15:30:44;22.20;75.30
52919;DHT22;38793;52.690;6.812;2023-05-27T15:33:11;22.10;75.90
52919;DHT22;38793;52.690;6.812;2023-05-27T15:35:36;22.10;74.90
52919;DHT22;38793;52.690;6.812;2023-05-27T15:38:02;22.00;75.10
52919;DHT22;38793;52.690;6.812;2023-05-27T15:40:27;22.00;74.70